Time;durP1;ratioP1;P1;durP2;ratioP2;P2;SDS_P1;SDS_P2;PMS_P1;PMS_P2;Temp;Humidity;BMP_temperature;BMP_pressure;BME280_temperature;BME280_humidity;BME280_pressure;Samples;Min_cycle;Max_cycle;Signal;HPM_P1;HPM_P2
2022/03/23 00:03:02;;;;;;;24.58;12.75;;;6.30;99.90;;;;;;6216015;23;20012;-82
2022/03/23 00:06:04;;;;;;;22.67;12.60;;;6.30;99.90;;;;;;6214623;23;20388;-82
2022/03/23 00:09:16;;;;;;;;;;;;;;;;;;;;;
2022/03/23 00:12:24;;;;;;;27.17;13.73;;;6.20;99.90;;;;;;6216440;23;20024;-83
2022/03/23 00:15:16;;;;;;;22.40;13.45;;;6.20;99.90;;;;;;6216278;23;20332;-83
2022/03/23 00:18:38;;;;;;;27.77;14.00;;;6.20;99.90;;;;;;6215728;23;20028;-83
2022/03/23 00:21:58;;;;;;;;;;;;;;;;;;;;;
2022/03/23 00:32:25;;;;;;;29.42;14.95;;;6.10;99.90;;;;;;6183334;23;20055;-84
2022/03/23 00:35:20;;;;;;;29.83;15.45;;;6.10;99.90;;;;;;6182937;23;20017;-84
2022/03/23 00:38:38;;;;;;;29.20;15.57;;;6.10;99.90;;;;;;6179689;23;20021;-84
2022/03/23 00:41:40;;;;;;;28.63;15.18;;;6.00;99.90;;;;;;6183362;23;20107;-84
2022/03/23 00:44:47;;;;;;;;;;;;;;;;;;;;;
2022/03/23 00:48:10;;;;;;;;;;;;;;;;;;;;;
2022/03/23 00:51:34;;;;;;;;;;;;;;;;;;;;;
2022/03/23 00:58:45;;;;;;;34.88;18.52;;;5.80;99.90;;;;;;6183003;23;20072;-84
2022/03/23 01:01:24;;;;;;;34.33;17.75;;;5.70;99.90;;;;;;6152814;23;20025;-83
2022/03/23 01:03:54;;;;;;;28.10;15.32;;;5.70;99.90;;;;;;6134594;23;20509;-84
2022/03/23 01:06:53;;;;;;;27.90;14.68;;;5.70;99.90;;;;;;6213486;23;20017;-84
2022/03/23 01:10:09;;;;;;;35.10;17.13;;;5.60;99.90;;;;;;6188153;23;20095;-84
2022/03/23 01:13:20;;;;;;;;;;;;;;;;;;;;;
2022/03/23 01:16:04;;;;;;;29.35;15.48;;;5.60;99.90;;;;;;6211959;23;20152;-83
2022/03/23 01:19:20;;;;;;;;;;;;;;;;;;;;;
2022/03/23 01:22:50;;;;;;;23.95;13.25;;;5.60;99.90;;;;;;6218947;23;20734;-83
2022/03/23 01:26:10;;;;;;;22.85;12.25;;;5.60;99.90;;;;;;6214798;23;20021;-84
2022/03/23 01:29:31;;;;;;;;;;;;;;;;;;;;;
2022/03/23 01:32:33;;;;;;;26.23;13.23;;;5.70;99.90;;;;;;6187952;23;20071;-84
2022/03/23 01:35:52;;;;;;;32.67;16.05;;;5.70;99.90;;;;;;6215253;23;20056;-83
2022/03/23 01:39:02;;;;;;;30.60;15.73;;;5.70;99.90;;;;;;6215269;23;20017;-84
2022/03/23 01:42:18;;;;;;;;;;;;;;;;;;;;;
2022/03/23 01:45:48;;;;;;;31.73;15.95;;;5.50;99.90;;;;;;6215307;23;20051;-84
2022/03/23 01:49:06;;;;;;;;;;;;;;;;;;;;;
2022/03/23 01:52:13;;;;;;;30.98;16.45;;;5.40;99.90;;;;;;6215182;23;20020;-84
2022/03/23 01:55:13;;;;;;;28.20;15.52;;;5.40;99.90;;;;;;6213499;23;20035;-83
2022/03/23 01:58:25;;;;;;;29.48;15.40;;;5.40;99.90;;;;;;6213452;23;20237;-84
2022/03/23 02:01:38;;;;;;;;;;;;;;;;;;;;;
2022/03/23 02:04:41;;;;;;;29.13;14.85;;;5.40;99.90;;;;;;6162520;23;19916;-83
2022/03/23 02:08:03;;;;;;;33.70;16.58;;;5.40;99.90;;;;;;6214828;23;20027;-84
2022/03/23 02:10:56;;;;;;;30.98;16.40;;;5.40;99.90;;;;;;6215100;23;20025;-84
2022/03/23 02:14:00;;;;;;;;;;;;;;;;;;;;;
2022/03/23 02:17:04;;;;;;;27.38;14.00;;;5.30;99.90;;;;;;6208552;23;20017;-84
2022/03/23 02:20:26;;;;;;;29.38;14.82;;;5.30;99.90;;;;;;6214408;23;20020;-83
2022/03/23 02:23:26;;;;;;;;;;;;;;;;;;;;;
2022/03/23 02:26:29;;;;;;;28.55;15.68;;;5.30;99.90;;;;;;6214978;23;20478;-83
2022/03/23 02:29:42;;;;;;;;;;;;;;;;;;;;;
2022/03/23 02:32:53;;;;;;;33.88;15.95;;;5.10;99.90;;;;;;6215293;23;20020;-84
2022/03/23 02:36:09;;;;;;;32.58;16.10;;;5.10;99.90;;;;;;6215129;23;20024;-84
2022/03/23 02:39:33;;;;;;;32.78;17.10;;;5.10;99.90;;;;;;6214779;23;20021;-82
2022/03/23 02:42:47;;;;;;;33.42;15.65;;;5.10;99.90;;;;;;6212900;23;20414;-84
2022/03/23 02:45:36;;;;;;;33.92;16.85;;;5.10;99.90;;;;;;6215250;23;20047;-83
2022/03/23 02:48:43;;;;;;;34.25;16.48;;;5.00;99.90;;;;;;6187456;23;20017;-83
2022/03/23 02:51:53;;;;;;;36.17;18.58;;;5.00;99.90;;;;;;6214442;23;20324;-82
2022/03/23 03:06:19;;;;;;;35.10;17.55;;;4.80;99.90;;;;;;6152363;23;20072;-82
2022/03/23 03:09:42;;;;;;;34.20;17.38;;;4.80;99.90;;;;;;6152315;23;20041;-83
2022/03/23 03:12:51;;;;;;;33.63;17.42;;;4.70;99.90;;;;;;6152133;23;20031;-83
2022/03/23 03:16:09;;;;;;;31.65;17.35;;;4.60;99.90;;;;;;6151913;23;20566;-83
2022/03/23 03:19:26;;;;;;;;;;;;;;;;;;;;;
2022/03/23 03:22:28;;;;;;;32.28;17.95;;;4.50;99.90;;;;;;6144175;23;20024;-83
2022/03/23 03:26:11;;;;;;;;;;;;;;;;;;;;;
2022/03/23 03:29:01;;;;;;;32.50;16.35;;;4.50;99.90;;;;;;6152098;23;20030;-82
2022/03/23 03:32:04;;;;;;;34.10;17.00;;;4.30;99.90;;;;;;6152115;23;20021;-83
2022/03/23 03:35:06;;;;;;;33.60;17.00;;;4.40;99.90;;;;;;6151565;23;20024;-83
2022/03/23 03:37:58;;;;;;;30.17;15.68;;;4.30;99.90;;;;;;6214406;23;20020;-83
2022/03/23 03:41:18;;;;;;;32.40;15.52;;;4.30;99.90;;;;;;6214520;23;20104;-82
2022/03/23 03:44:52;;;;;;;;;;;;;;;;;;;;;
2022/03/23 03:48:01;;;;;;;27.40;13.32;;;4.30;99.90;;;;;;6186793;23;20023;-84
2022/03/23 03:51:36;;;;;;;;;;;;;;;;;;;;;
2022/03/23 03:54:52;;;;;;;;;;;;;;;;;;;;;
2022/03/23 03:58:17;;;;;;;26.30;12.95;;;4.20;99.90;;;;;;6211326;23;20020;-84
2022/03/23 04:01:34;;;;;;;26.38;13.05;;;4.20;99.90;;;;;;6214332;23;20475;-83
2022/03/23 04:04:52;;;;;;;;;;;;;;;;;;;;;
2022/03/23 04:08:22;;;;;;;25.60;13.18;;;4.20;99.90;;;;;;6211337;23;20016;-83
2022/03/23 04:11:18;;;;;;;23.75;12.25;;;4.20;99.90;;;;;;6214286;23;20031;-83
2022/03/23 04:14:37;;;;;;;26.48;13.70;;;4.20;99.90;;;;;;6212563;23;20093;-83
2022/03/23 04:17:42;;;;;;;30.67;15.88;;;4.20;99.90;;;;;;6214297;23;20048;-83
2022/03/23 04:20:52;;;;;;;29.00;14.40;;;4.20;99.90;;;;;;6186919;23;20020;-82
2022/03/23 04:24:18;;;;;;;30.52;15.23;;;4.20;99.90;;;;;;6216699;23;20064;-84
2022/03/23 04:27:50;;;;;;;;;;;;;;;;;;;;;
2022/03/23 05:07:25;;;;;;;30.25;15.25;;;3.70;99.90;;;;;;6215944;23;20040;-82
2022/03/23 05:10:29;;;;;;;;;;;;;;;;;;;;;
2022/03/23 05:13:37;;;;;;;;;;;;;;;;;;;;;
2022/03/23 05:16:39;;;;;;;;;;;3.70;99.90;;;;;;6216143;23;20451;-83
2022/03/23 05:19:52;;;;;;;;;;;;;;;;;;;;;
2022/03/23 05:23:04;;;;;;;33.53;15.52;;;3.70;99.90;;;;;;6214985;23;19920;-82
2022/03/23 05:30:00;;;;;;;;;;;;;;;;;;;;;
2022/03/23 05:33:02;;;;;;;23.17;11.20;;;3.70;99.90;;;;;;6215531;23;20024;-82
2022/03/23 05:35:51;;;;;;;28.38;13.85;;;3.70;99.90;;;;;;6212666;23;20095;-82
2022/03/23 05:38:43;;;;;;;24.52;12.57;;;3.60;99.90;;;;;;6200275;23;20021;-82
2022/03/23 05:41:39;;;;;;;22.55;12.13;;;3.60;99.90;;;;;;6213220;23;20028;-83
2022/03/23 05:44:49;;;;;;;22.73;12.32;;;3.60;99.90;;;;;;6162859;23;20016;-83
2022/03/23 05:47:53;;;;;;;24.73;13.15;;;3.60;99.90;;;;;;6215418;23;20451;-83
2022/03/23 05:50:59;;;;;;;;;;;;;;;;;;;;;
2022/03/23 05:53:58;;;;;;;;;;;;;;;;;;;;;
2022/03/23 05:57:07;;;;;;;;;;;;;;;;;;;;;
2022/03/23 06:00:28;;;;;;;23.23;12.07;;;3.60;99.90;;;;;;6215020;23;20459;-82
2022/03/23 06:03:35;;;;;;;21.08;11.13;;;3.70;99.90;;;;;;6212871;23;20023;-83
2022/03/23 06:06:36;;;;;;;24.15;12.55;;;3.70;99.90;;;;;;6187823;23;20020;-83
2022/03/23 06:13:20;;;;;;;23.10;12.60;;;3.80;99.90;;;;;;6214616;23;20017;-81
2022/03/23 06:16:19;;;;;;;24.08;13.10;;;3.90;99.90;;;;;;6213545;23;20024;-83
2022/03/23 06:19:27;;;;;;;26.07;13.90;;;4.00;99.90;;;;;;6214768;23;20051;-83
2022/03/23 06:22:42;;;;;;;;;;;;;;;;;;;;;
2022/03/23 06:25:41;;;;;;;23.95;13.02;;;4.20;99.90;;;;;;6211466;23;20020;-82
2022/03/23 06:28:57;;;;;;;25.77;13.45;;;4.30;99.90;;;;;;6218043;23;20020;-83
2022/03/23 06:31:53;;;;;;;26.42;13.45;;;4.30;99.90;;;;;;6216046;23;20021;-82
2022/03/23 06:34:48;;;;;;;24.42;13.13;;;4.40;99.90;;;;;;6214754;23;20052;-84
2022/03/23 06:37:48;;;;;;;27.52;13.43;;;4.40;99.90;;;;;;6215332;23;20021;-83
2022/03/23 06:40:44;;;;;;;26.08;13.68;;;4.50;99.90;;;;;;6214513;23;20439;-83
2022/03/23 06:43:43;;;;;;;28.75;14.18;;;4.60;99.90;;;;;;6212635;23;20017;-82
2022/03/23 06:46:45;;;;;;;28.85;15.73;;;4.70;99.90;;;;;;6212861;23;20047;-82
2022/03/23 06:49:40;;;;;;;;;;;;;;;;;;;;;
2022/03/23 06:56:19;;;;;;;29.52;14.85;;;5.00;99.90;;;;;;6214949;23;20019;-83
2022/03/23 06:59:14;;;;;;;26.23;14.55;;;5.20;99.90;;;;;;6210871;23;20020;-83
2022/03/23 07:02:13;;;;;;;;;;;;;;;;;;;;;
2022/03/23 07:05:03;;;;;;;31.85;16.35;;;5.40;99.90;;;;;;6162173;23;20028;-84
2022/03/23 07:11:18;;;;;;;29.80;15.02;;;5.80;99.90;;;;;;6214477;23;20031;-83
2022/03/23 07:13:57;;;;;;;27.70;14.18;;;5.80;99.90;;;;;;6212993;23;20016;-83
2022/03/23 07:17:03;;;;;;;33.33;16.98;;;5.40;99.90;;;;;;6214856;23;20083;-81
2022/03/23 07:20:06;;;;;;;30.63;15.30;;;6.10;99.90;;;;;;6214216;23;20075;-83
2022/03/23 07:23:16;;;;;;;;;;;;;;;;;;;;;
2022/03/23 07:26:39;;;;;;;30.27;17.05;;;6.40;99.90;;;;;;6217858;23;20031;-84
2022/03/23 07:30:10;;;;;;;29.48;16.27;;;6.60;99.90;;;;;;6212321;23;20024;-85
2022/03/23 07:33:02;;;;;;;25.17;13.63;;;6.40;99.90;;;;;;6122481;23;20077;-85
2022/03/23 07:43:07;;;;;;;21.95;10.70;;;7.40;99.90;;;;;;6026408;23;20331;-83
2022/03/23 07:46:07;;;;;;;24.60;12.35;;;7.60;99.90;;;;;;6058134;23;20019;-84
2022/03/23 07:49:05;;;;;;;;;;;;;;;;;;;;;
2022/03/23 07:52:02;;;;;;;21.35;12.05;;;7.90;99.90;;;;;;6064532;23;20022;-84
2022/03/23 07:55:12;;;;;;;27.33;15.90;;;8.20;99.90;;;;;;6041079;23;20058;-84
2022/03/23 08:09:02;;;;;;;;;;;;;;;;;;;;;
2022/03/23 08:12:00;;;;;;;22.75;12.90;;;9.30;99.90;;;;;;6066094;23;20501;-85
2022/03/23 08:14:58;;;;;;;;;;;;;;;;;;;;;
2022/03/23 08:17:38;;;;;;;17.52;10.40;;;9.70;99.90;;;;;;6065939;23;20018;-86
2022/03/23 08:20:36;;;;;;;17.95;9.73;;;9.80;99.90;;;;;;6088420;23;20030;-84
2022/03/23 08:23:32;;;;;;;;;;;;;;;;;;;;;
2022/03/23 08:27:01;;;;;;;30.98;16.58;;;10.20;99.90;;;;;;6094174;23;20026;-85
2022/03/23 08:30:12;;;;;;;;;;;;;;;;;;;;;
2022/03/23 08:33:32;;;;;;;26.13;14.45;;;10.60;99.90;;;;;;6216014;23;20107;-84
2022/03/23 08:36:44;;;;;;;26.05;14.70;;;10.90;99.90;;;;;;6216140;23;20020;-84
2022/03/23 08:39:48;;;;;;;24.65;14.98;;;11.10;99.90;;;;;;6214444;23;20020;-83
2022/03/23 08:42:58;;;;;;;;;;;;;;;;;;;;;
2022/03/23 08:46:00;;;;;;;20.88;12.25;;;11.40;99.90;;;;;;6209964;23;20044;-84
2022/03/23 08:49:00;;;;;;;18.63;10.85;;;11.60;99.90;;;;;;6191202;23;20021;-84
2022/03/23 08:51:42;;;;;;;16.40;10.30;;;11.80;99.90;;;;;;6213611;23;20027;-85
2022/03/23 08:55:04;;;;;;;20.25;12.00;;;11.90;99.90;;;;;;6204454;23;20128;-85
2022/03/23 08:58:10;;;;;;;18.55;11.05;;;12.20;99.90;;;;;;6214200;23;20046;-84
2022/03/23 09:01:07;;;;;;;20.50;12.43;;;12.30;99.90;;;;;;6215890;23;20020;-84
2022/03/23 09:03:43;;;;;;;20.55;11.15;;;12.50;99.90;;;;;;6212952;23;20016;-84
2022/03/23 09:06:26;;;;;;;16.77;10.15;;;12.70;99.90;;;;;;6189206;23;20159;-85
2022/03/23 09:08:58;;;;;;;;;;;12.90;99.90;;;;;;6189508;23;20013;-84
2022/03/23 09:11:38;;;;;;;16.65;9.60;;;13.10;99.90;;;;;;6213350;23;19978;-84
2022/03/23 09:14:30;;;;;;;18.20;10.70;;;13.20;99.90;;;;;;6190021;23;20028;-85
2022/03/23 09:17:29;;;;;;;17.80;10.55;;;13.40;99.90;;;;;;6215044;23;20032;-85
2022/03/23 09:21:00;;;;;;;19.80;11.77;;;13.60;99.90;;;;;;6189162;23;20104;-86
2022/03/23 09:24:37;;;;;;;;;;;;;;;;;;;;;
2022/03/23 09:27:34;;;;;;;17.77;9.98;;;14.00;99.90;;;;;;6123400;23;20014;-84
2022/03/23 09:34:25;;;;;;;17.65;10.85;;;14.60;99.90;;;;;;6123254;23;20032;-84
2022/03/23 09:49:29;;;;;;;;;;;;;;;;;;;;;
2022/03/23 09:52:29;;;;;;;17.90;11.77;;;15.50;93.60;;;;;;6056859;22;20027;-86
2022/03/23 09:55:49;;;;;;;;;;;;;;;;;;;;;
2022/03/23 11:02:06;;;;;;;12.02;8.15;;;18.90;62.80;;;;;;6213828;23;20526;-83
2022/03/23 11:04:43;;;;;;;11.07;8.10;;;19.00;58.40;;;;;;6212665;23;20398;-83
2022/03/23 11:21:03;;;;;;;9.95;6.75;;;19.50;62.70;;;;;;6122217;23;20026;-85
2022/03/23 11:26:56;;;;;;;12.48;7.93;;;19.80;58.40;;;;;;6209762;22;20059;-86
2022/03/23 11:29:23;;;;;;;12.75;8.80;;;19.90;56.30;;;;;;6215495;23;20027;-85
2022/03/23 11:31:53;;;;;;;15.40;9.00;;;19.80;52.90;;;;;;6245829;23;20473;-85
2022/03/23 11:41:05;;;;;;;13.15;6.90;;;19.70;51.30;;;;;;6240987;22;20036;-89
2022/03/23 11:50:48;;;;;;;14.50;7.97;;;19.60;54.60;;;;;;6241814;22;20027;-89
2022/03/23 11:53:58;;;;;;;17.45;8.15;;;19.70;52.10;;;;;;6169730;22;20025;-90
2022/03/23 11:57:12;;;;;;;9.80;7.60;;;19.80;51.80;;;;;;6245242;23;20024;-92
2022/03/23 12:05:34;;;;;;;9.80;5.05;;;20.00;52.00;;;;;;6241431;22;20032;-82
2022/03/23 12:08:55;;;;;;;9.15;5.63;;;20.10;52.60;;;;;;6245691;23;20052;-88
2022/03/23 12:11:44;;;;;;;15.85;8.98;;;20.30;55.20;;;;;;6246696;23;20431;-84
2022/03/23 12:14:23;;;;;;;14.65;9.43;;;20.40;55.60;;;;;;6245603;23;20027;-87
2022/03/23 12:17:41;;;;;;;11.98;8.32;;;20.40;54.30;;;;;;6218390;23;20098;-88
2022/03/23 12:24:26;;;;;;;;;;;;;;;;;;;;;
2022/03/23 12:27:50;;;;;;;13.07;6.90;;;20.20;53.10;;;;;;6219430;23;20023;-92
2022/03/23 12:31:07;;;;;;;;;;;;;;;;;;;;;
2022/03/23 12:34:11;;;;;;;;;;;;;;;;;;;;;
2022/03/23 12:37:30;;;;;;;13.13;5.50;;;20.60;52.50;;;;;;6123760;23;20085;-88
2022/03/23 12:40:54;;;;;;;;;;;;;;;;;;;;;
2022/03/23 12:43:58;;;;;;;9.82;4.07;;;20.60;50.40;;;;;;6098577;23;20405;-84
2022/03/23 12:47:05;;;;;;;10.32;4.93;;;20.60;50.70;;;;;;6122637;23;20088;-87
2022/03/23 12:59:25;;;;;;;8.05;4.78;;;20.90;48.80;;;;;;6153837;23;20022;-84
2022/03/23 13:02:49;;;;;;;;;;;;;;;;;;;;;
2022/03/23 13:05:39;;;;;;;10.55;5.95;;;20.90;50.10;;;;;;6126431;23;20017;-86
2022/03/23 13:08:47;;;;;;;11.90;5.82;;;20.80;49.20;;;;;;6153431;23;20180;-85
2022/03/23 13:11:53;;;;;;;11.98;6.82;;;20.80;49.90;;;;;;6217748;23;20024;-86
2022/03/23 13:14:42;;;;;;;11.57;6.72;;;20.90;51.30;;;;;;6196293;23;20012;-83
2022/03/23 13:17:29;;;;;;;14.40;7.50;;;21.00;53.00;;;;;;6242945;23;20362;-86
2022/03/23 13:20:45;;;;;;;10.85;5.90;;;20.90;51.70;;;;;;6194529;23;20028;-85
2022/03/23 13:23:16;;;;;;;11.85;5.10;;;20.70;50.50;;;;;;6212708;23;20021;-87
2022/03/23 13:26:12;;;;;;;10.55;4.88;;;20.80;50.50;;;;;;6218400;23;20022;-85
2022/03/23 13:28:54;;;;;;;9.32;4.93;;;20.70;50.10;;;;;;6217553;23;20020;-85
2022/03/23 13:31:30;;;;;;;12.75;5.78;;;20.70;50.50;;;;;;6218316;23;20026;-84
2022/03/23 13:34:06;;;;;;;11.90;4.10;;;20.70;52.50;;;;;;6193979;23;20012;-84
2022/03/23 13:36:38;;;;;;;11.18;4.70;;;20.70;50.70;;;;;;6245535;23;20081;-87
2022/03/23 13:39:12;;;;;;;15.98;6.07;;;20.70;51.20;;;;;;6217216;23;20023;-83
2022/03/23 13:47:41;;;;;;;9.98;4.90;;;20.70;50.70;;;;;;6218582;23;20016;-86
2022/03/23 13:50:44;;;;;;;10.45;4.70;;;20.60;49.90;;;;;;6218589;23;20016;-86
2022/03/23 13:53:42;;;;;;;13.85;4.53;;;20.70;49.70;;;;;;6194720;23;20108;-85
2022/03/23 13:56:47;;;;;;;16.17;4.50;;;20.70;50.50;;;;;;6219452;23;20393;-85
2022/03/23 14:00:10;;;;;;;;;;;;;;;;;;;;;
2022/03/23 14:03:38;;;;;;;12.63;5.53;;;20.70;51.00;;;;;;6180543;23;20020;-86
2022/03/23 14:06:57;;;;;;;14.18;5.25;;;20.60;49.40;;;;;;6193144;23;20043;-85
2022/03/23 14:10:32;;;;;;;;;;;;;;;;;;;;;
2022/03/23 14:13:48;;;;;;;;;;;;;;;;;;;;;
2022/03/23 14:17:35;;;;;;;15.20;5.53;;;20.60;50.80;;;;;;6202406;23;20056;-83
2022/03/23 14:20:19;;;;;;;12.88;5.35;;;20.50;50.50;;;;;;6245741;22;20031;-84
2022/03/23 14:30:33;;;;;;;12.38;4.65;;;20.50;50.80;;;;;;6245560;23;20050;-82
2022/03/23 14:33:46;;;;;;;;;;;;;;;;;;;;;
2022/03/23 14:36:36;;;;;;;13.40;4.05;;;20.50;50.70;;;;;;6242988;22;20020;-82
2022/03/23 14:40:00;;;;;;;12.35;3.50;;;20.40;50.40;;;;;;6229062;22;20316;-82
2022/03/23 14:43:25;;;;;;;7.38;3.38;;;20.30;50.20;;;;;;6244797;23;20051;-81
2022/03/23 14:46:52;;;;;;;;;;;;;;;;;;;;;
2022/03/23 14:50:03;;;;;;;11.32;4.18;;;20.00;52.00;;;;;;6244019;23;20402;-81
2022/03/23 14:52:38;;;;;;;11.73;4.70;;;20.00;50.50;;;;;;6245117;22;20016;-81
2022/03/23 14:55:51;;;;;;;19.85;3.95;;;19.90;50.90;;;;;;6240583;22;20020;-82
2022/03/23 14:59:03;;;;;;;9.63;3.88;;;19.80;50.10;;;;;;6245503;22;20454;-82
2022/03/23 15:02:08;;;;;;;12.95;3.63;;;19.70;50.20;;;;;;6245394;22;20024;-82
2022/03/23 15:15:42;;;;;;;10.63;2.63;;;19.10;51.00;;;;;;6152678;23;20028;-83
2022/03/23 15:18:45;;;;;;;12.18;2.50;;;18.80;51.50;;;;;;6152042;23;20100;-83
2022/03/23 15:21:54;;;;;;;11.30;2.00;;;18.60;50.60;;;;;;6152403;23;20025;-83
2022/03/23 15:25:19;;;;;;;9.45;2.10;;;18.50;51.80;;;;;;6152424;23;20060;-83
2022/03/23 15:28:21;;;;;;;14.98;2.97;;;18.50;52.90;;;;;;6149215;23;20024;-84
2022/03/23 15:31:23;;;;;;;9.88;2.83;;;18.50;53.60;;;;;;6148365;23;20368;-84
2022/03/23 15:34:49;;;;;;;7.20;2.33;;;18.20;52.50;;;;;;6036396;23;20027;-83
2022/03/23 15:42:11;;;;;;;10.88;3.40;;;18.30;53.20;;;;;;6036349;23;20411;-83
2022/03/23 15:45:11;;;;;;;10.93;3.83;;;18.10;52.80;;;;;;6092574;23;20112;-83
2022/03/23 15:48:22;;;;;;;;;;;;;;;;;;;;;
2022/03/23 15:51:24;;;;;;;13.98;4.22;;;18.00;55.50;;;;;;6151895;23;20498;-83
2022/03/23 15:54:32;;;;;;;7.60;3.28;;;17.90;56.20;;;;;;6103371;23;20017;-83
2022/03/23 15:57:32;;;;;;;9.02;3.60;;;17.80;57.20;;;;;;6127540;23;20460;-83
2022/03/23 16:00:25;;;;;;;12.43;3.85;;;17.70;58.20;;;;;;6126436;23;20021;-83
2022/03/23 16:03:32;;;;;;;8.70;3.10;;;17.60;56.70;;;;;;6151841;23;20022;-83
2022/03/23 16:06:33;;;;;;;9.65;3.53;;;17.50;57.40;;;;;;6150519;23;20056;-83
2022/03/23 16:09:34;;;;;;;11.73;3.45;;;17.40;56.00;;;;;;6152344;23;20369;-83
2022/03/23 16:12:35;;;;;;;10.57;3.78;;;17.30;56.70;;;;;;6245032;22;20459;-83
2022/03/23 16:15:33;;;;;;;7.68;4.25;;;17.20;57.60;;;;;;6241743;23;20126;-83
2022/03/23 16:18:18;;;;;;;10.70;5.30;;;17.20;58.10;;;;;;6192240;23;20349;-83
2022/03/23 16:21:22;;;;;;;9.85;5.63;;;17.10;60.00;;;;;;6243410;22;20143;-83
2022/03/23 16:54:46;;;;;;;;;;;;;;;;;;;;;
2022/03/23 16:57:58;;;;;;;;;;;;;;;;;;;;;
2022/03/23 17:00:54;;;;;;;24.65;15.98;;;14.80;99.90;;;;;;6188539;23;20028;-86
2022/03/23 17:12:35;;;;;;;21.88;14.40;;;14.00;99.90;;;;;;6187018;23;20021;-86
2022/03/23 17:15:15;;;;;;;24.10;14.73;;;13.80;99.90;;;;;;6210731;23;20017;-85
2022/03/23 17:18:12;;;;;;;23.27;14.95;;;13.70;99.90;;;;;;6188873;23;20016;-86
2022/03/23 17:21:18;;;;;;;25.25;14.93;;;13.50;99.90;;;;;;6188012;23;20096;-82
2022/03/23 17:24:36;;;;;;;;;;;;;;;;;;;;;
2022/03/23 17:31:48;;;;;;;21.75;14.40;;;13.00;99.90;;;;;;6215931;23;20502;-86
2022/03/23 17:35:14;;;;;;;23.60;14.98;;;12.80;99.90;;;;;;6215594;23;20024;-85
2022/03/23 17:38:09;;;;;;;23.08;14.45;;;12.70;99.90;;;;;;6216033;23;20455;-88
2022/03/23 17:41:34;;;;;;;24.55;13.85;;;12.60;99.90;;;;;;6189984;23;20024;-86
2022/03/23 17:44:27;;;;;;;22.77;13.43;;;12.50;99.90;;;;;;6215693;23;20447;-84
2022/03/23 17:47:50;;;;;;;;;;;;;;;;;;;;;
2022/03/23 17:50:55;;;;;;;24.33;14.90;;;12.30;99.90;;;;;;6193631;23;20027;-83
2022/03/23 17:54:23;;;;;;;24.98;14.63;;;12.20;99.90;;;;;;6215300;23;20029;-83
2022/03/23 17:57:32;;;;;;;25.50;16.23;;;12.10;99.90;;;;;;6212638;23;20051;-84
2022/03/23 18:01:06;;;;;;;;;;;;;;;;;;;;;
2022/03/23 18:04:01;;;;;;;26.65;17.88;;;11.80;99.90;;;;;;6187809;23;20027;-81
2022/03/23 18:14:13;;;;;;;23.45;13.95;;;11.30;99.90;;;;;;6215090;23;20023;-83
2022/03/23 18:17:20;;;;;;;;;;;;;;;;;;;;;
2022/03/23 18:27:57;;;;;;;21.33;13.93;;;11.00;99.90;;;;;;6089514;23;20340;-84
2022/03/23 18:31:16;;;;;;;22.52;13.88;;;10.90;99.90;;;;;;6094037;23;20322;-85
2022/03/23 18:38:05;;;;;;;20.67;12.73;;;10.80;99.90;;;;;;6094091;23;20109;-85
2022/03/23 18:45:04;;;;;;;;;;;;;;;;;;;;;
2022/03/23 18:48:04;;;;;;;21.63;13.27;;;10.70;99.90;;;;;;5989015;23;20025;-83
2022/03/23 18:51:09;;;;;;;;;;;;;;;;;;;;;
2022/03/23 18:54:15;;;;;;;27.55;14.95;;;10.60;99.90;;;;;;6027429;23;20027;-87
2022/03/23 18:57:44;;;;;;;24.35;14.35;;;10.50;99.90;;;;;;6044079;23;20369;-85
2022/03/23 19:00:55;;;;;;;25.17;14.23;;;10.40;99.90;;;;;;6097058;23;20030;-87
2022/03/23 19:03:52;;;;;;;20.60;13.43;;;10.40;99.90;;;;;;6123053;23;20014;-89
2022/03/23 19:06:39;;;;;;;26.70;15.52;;;10.30;99.90;;;;;;6122498;23;20066;-84
2022/03/23 19:09:23;;;;;;;24.88;13.93;;;10.20;99.90;;;;;;6074437;23;20053;-84
2022/03/23 19:12:36;;;;;;;;;;;;;;;;;;;;;
2022/03/23 19:15:56;;;;;;;;;;;;;;;;;;;;;
2022/03/23 19:19:34;;;;;;;;;;;;;;;;;;;;;
2022/03/23 19:22:46;;;;;;;26.40;13.68;;;9.80;99.90;;;;;;6210910;23;20029;-87
2022/03/23 19:26:00;;;;;;;;;;;;;;;;;;;;;
2022/03/23 19:29:03;;;;;;;20.83;12.48;;;9.70;99.90;;;;;;6185357;23;20021;-89
2022/03/23 19:32:34;;;;;;;;;;;;;;;;;;;;;
2022/03/23 19:35:56;;;;;;;;;;;;;;;;;;;;;
2022/03/23 19:39:14;;;;;;;23.83;14.35;;;9.50;99.90;;;;;;6162851;23;20016;-86
2022/03/23 19:42:29;;;;;;;25.05;15.07;;;9.30;99.90;;;;;;6123094;23;20038;-87
2022/03/23 19:46:05;;;;;;;25.52;14.65;;;9.30;99.90;;;;;;6123662;23;20026;-88
2022/03/23 19:49:20;;;;;;;;;;;;;;;;;;;;;
2022/03/23 19:52:33;;;;;;;28.30;16.27;;;9.20;99.90;;;;;;6050178;23;20025;-87
2022/03/23 19:55:22;;;;;;;;;;;;;;;;;;;;;
2022/03/23 19:58:27;;;;;;;24.45;13.80;;;9.10;99.90;;;;;;6047760;23;20436;-87
2022/03/23 20:05:09;;;;;;;23.40;14.40;;;8.90;99.90;;;;;;6083952;23;20471;-86
2022/03/23 20:08:45;;;;;;;;;;;;;;;;;;;;;
2022/03/23 20:12:02;;;;;;;26.63;15.90;;;8.80;99.90;;;;;;6019969;23;20086;-86
2022/03/23 20:15:01;;;;;;;27.27;15.52;;;8.80;99.90;;;;;;6095503;23;20026;-87
2022/03/23 20:17:59;;;;;;;;;;;;;;;;;;;;;
2022/03/23 20:21:06;;;;;;;;;;;;;;;;;;;;;
2022/03/23 20:27:31;;;;;;;27.92;15.98;;;8.70;99.90;;;;;;6216940;23;20141;-89
2022/03/23 20:30:03;;;;;;;32.15;17.50;;;8.60;99.90;;;;;;6214434;23;20023;-85
2022/03/23 20:32:35;;;;;;;26.55;15.35;;;8.60;99.90;;;;;;6190417;23;20443;-86
2022/03/23 20:35:03;;;;;;;24.98;14.40;;;8.50;99.90;;;;;;6212867;23;20095;-84
2022/03/23 20:37:31;;;;;;;29.20;15.55;;;8.50;99.90;;;;;;6215336;23;20024;-87
2022/03/23 20:39:57;;;;;;;29.50;16.92;;;8.40;99.90;;;;;;6189148;23;20055;-86
2022/03/23 20:42:25;;;;;;;24.25;14.20;;;8.40;99.90;;;;;;6189733;23;20012;-87
2022/03/23 20:44:54;;;;;;;27.08;15.15;;;8.30;99.90;;;;;;6189997;23;20117;-88
2022/03/23 20:47:41;;;;;;;24.90;14.85;;;8.30;99.90;;;;;;6216972;23;20073;-88
2022/03/23 20:50:12;;;;;;;30.42;16.70;;;8.20;99.90;;;;;;6209363;23;20031;-87
2022/03/23 20:52:42;;;;;;;33.97;16.70;;;8.30;99.90;;;;;;6188398;23;20024;-88
2022/03/23 20:55:13;;;;;;;27.35;15.15;;;8.20;99.90;;;;;;6215099;23;20013;-81
2022/03/23 20:57:44;;;;;;;25.02;14.30;;;8.20;99.90;;;;;;6214496;23;20020;-86
2022/03/23 21:00:14;;;;;;;26.42;13.98;;;8.10;99.90;;;;;;6188881;23;20028;-88
2022/03/23 21:02:43;;;;;;;29.52;16.48;;;8.10;99.90;;;;;;6246535;23;20050;-88
2022/03/23 21:05:12;;;;;;;28.25;16.50;;;8.00;99.90;;;;;;6244953;23;20020;-83
2022/03/23 21:07:43;;;;;;;28.35;17.05;;;8.00;99.90;;;;;;6218798;23;20319;-85
2022/03/23 21:10:12;;;;;;;31.90;16.08;;;8.00;99.90;;;;;;6219445;23;20435;-91
2022/03/23 21:12:42;;;;;;;29.58;17.25;;;7.90;99.90;;;;;;6245356;23;20012;-86
2022/03/23 21:15:36;;;;;;;28.75;16.92;;;7.90;99.90;;;;;;6219586;23;20462;-88
2022/03/23 21:18:50;;;;;;;;;;;;;;;;;;;;;
2022/03/23 21:22:00;;;;;;;31.08;17.00;;;7.70;99.90;;;;;;6246105;23;20019;-88
2022/03/23 21:25:10;;;;;;;32.60;17.15;;;7.60;99.90;;;;;;6250728;23;20024;-87
2022/03/23 21:32:03;;;;;;;;;;;;;;;;;;;;;
2022/03/23 21:35:28;;;;;;;;;;;;;;;;;;;;;
2022/03/23 21:38:46;;;;;;;34.08;19.15;;;7.40;99.90;;;;;;6247031;23;20020;-83
2022/03/23 21:42:07;;;;;;;33.15;18.00;;;7.30;99.90;;;;;;6247097;23;20028;-83
2022/03/23 21:45:33;;;;;;;34.92;19.48;;;7.30;99.90;;;;;;6246156;23;20395;-86
2022/03/23 21:48:57;;;;;;;36.90;19.48;;;7.20;99.90;;;;;;6246933;23;20024;-84
2022/03/23 21:56:00;;;;;;;29.17;15.93;;;7.00;99.90;;;;;;6123449;23;20025;-84
2022/03/23 21:59:16;;;;;;;33.17;17.90;;;7.00;99.90;;;;;;6128817;23;20028;-87
2022/03/23 22:02:37;;;;;;;32.03;17.20;;;6.90;99.90;;;;;;6145860;23;20048;-82
2022/03/23 22:06:14;;;;;;;;;;;;;;;;;;;;;
2022/03/23 22:09:17;;;;;;;29.88;17.48;;;6.80;99.90;;;;;;6118628;23;20385;-87
2022/03/23 22:12:38;;;;;;;;;;;;;;;;;;;;;
2022/03/23 22:19:20;;;;;;;37.35;20.05;;;6.70;99.90;;;;;;6152420;23;20040;-87
2022/03/23 22:21:56;;;;;;;36.85;20.30;;;6.60;99.90;;;;;;6127865;23;20489;-89
2022/03/23 22:24:58;;;;;;;38.33;20.77;;;6.50;99.90;;;;;;6126003;23;20021;-87
2022/03/23 22:28:12;;;;;;;40.50;19.80;;;6.50;99.90;;;;;;6152866;23;20060;-87
2022/03/23 22:30:54;;;;;;;35.15;19.42;;;6.40;99.90;;;;;;6181906;23;20021;-85
2022/03/23 22:34:08;;;;;;;;;;;;;;;;;;;;;
2022/03/23 22:37:33;;;;;;;;;;;;;;;;;;;;;
2022/03/23 22:44:24;;;;;;;34.13;17.90;;;6.20;99.90;;;;;;6215246;23;20020;-86
2022/03/23 22:47:56;;;;;;;;;;;;;;;;;;;;;
2022/03/23 22:51:21;;;;;;;;;;;;;;;;;;;;;
2022/03/23 22:54:54;;;;;;;;;;;;;;;;;;;;;
2022/03/23 22:58:19;;;;;;;33.80;17.85;;;6.10;99.90;;;;;;6216178;23;20032;-89
2022/03/23 23:01:45;;;;;;;30.27;15.77;;;6.00;99.90;;;;;;6223591;23;20020;-88
2022/03/23 23:08:50;;;;;;;;;;;;;;;;;;;;;
2022/03/23 23:12:08;;;;;;;;;;;;;;;;;;;;;
2022/03/23 23:15:33;;;;;;;31.10;16.13;;;5.50;99.90;;;;;;6246903;23;20019;-82
2022/03/23 23:18:38;;;;;;;32.13;16.67;;;5.40;99.90;;;;;;6246036;23;20028;-87
2022/03/23 23:21:37;;;;;;;33.30;17.25;;;5.40;99.90;;;;;;6247001;23;20397;-83
2022/03/23 23:24:41;;;;;;;;;;;;;;;;;;;;;
2022/03/23 23:32:02;;;;;;;;;;;;;;;;;;;;;
2022/03/23 23:35:19;;;;;;;35.67;18.33;;;5.30;99.90;;;;;;6246451;23;20020;-89